createdAt,value
2023-05-19T00:01:00.660Z,84.53
2023-05-19T00:03:28.921Z,84.85
2023-05-19T00:05:57.431Z,85.10
2023-05-19T00:08:25.795Z,85.33
2023-05-19T00:10:53.825Z,85.35
2023-05-19T00:13:22.023Z,85.31
2023-05-19T00:15:51.063Z,85.41
2023-05-19T00:18:18.947Z,85.67
2023-05-19T00:20:46.738Z,85.76
2023-05-19T00:23:14.539Z,85.82
2023-05-19T00:25:42.978Z,85.95
2023-05-19T00:28:10.858Z,86.18
2023-05-19T00:30:38.605Z,86.38
2023-05-19T00:33:06.399Z,86.60
2023-05-19T00:35:34.344Z,86.81
2023-05-19T00:38:02.223Z,87.03
2023-05-19T00:40:32.194Z,87.26
2023-05-19T00:43:00.557Z,87.32
2023-05-19T00:45:29.084Z,87.29
2023-05-19T00:47:57.229Z,87.37
2023-05-19T00:50:25.155Z,87.56
2023-05-19T00:52:53.303Z,87.58
2023-05-19T00:55:28.275Z,87.61
2023-05-19T00:57:57.016Z,87.53
2023-05-19T01:00:24.816Z,87.48
2023-05-19T01:02:54.216Z,87.40
2023-05-19T01:05:22.671Z,87.30
2023-05-19T01:07:56.491Z,87.25
2023-05-19T01:10:24.377Z,87.26
2023-05-19T01:12:52.253Z,87.27
2023-05-19T01:15:20.266Z,87.23
2023-05-19T01:17:56.036Z,87.20
2023-05-19T01:20:36.042Z,87.22
2023-05-19T01:23:15.136Z,87.18
2023-05-19T01:26:09.800Z,87.17
2023-05-19T01:28:56.702Z,87.31
2023-05-19T01:31:26.813Z,87.31
2023-05-19T01:33:55.269Z,87.29
2023-05-19T01:36:23.591Z,87.41
2023-05-19T01:38:53.974Z,87.61
2023-05-19T01:41:23.068Z,87.79
2023-05-19T01:43:51.396Z,87.93
2023-05-19T01:46:19.377Z,87.93
2023-05-19T01:48:48.370Z,87.92
2023-05-19T01:51:16.274Z,88.01
2023-05-19T01:53:44.172Z,88.08
2023-05-19T01:56:21.613Z,88.11
2023-05-19T01:58:57.756Z,88.21
2023-05-19T02:01:52.042Z,88.32
2023-05-19T02:04:49.323Z,88.40
2023-05-19T02:07:42.685Z,88.50
2023-05-19T02:10:14.758Z,88.53
2023-05-19T02:12:44.891Z,88.55
2023-05-19T02:15:18.113Z,88.69
2023-05-19T02:17:50.729Z,88.78
2023-05-19T02:20:18.997Z,88.80
2023-05-19T02:22:46.807Z,88.90
2023-05-19T02:25:14.735Z,88.92
2023-05-19T02:27:42.589Z,88.92
2023-05-19T02:30:10.973Z,88.97
2023-05-19T02:32:38.787Z,88.98
2023-05-19T02:35:06.816Z,89.00
2023-05-19T02:37:35.462Z,89.01
2023-05-19T02:40:04.227Z,88.98
2023-05-19T02:42:32.054Z,88.98
2023-05-19T02:45:00.911Z,89.06
2023-05-19T02:47:28.725Z,89.10
2023-05-19T02:49:56.531Z,89.10
2023-05-19T02:52:24.326Z,89.15
2023-05-19T02:54:52.129Z,89.19
2023-05-19T02:57:19.988Z,89.20
2023-05-19T02:59:48.050Z,89.21
2023-05-19T03:02:15.933Z,89.19
2023-05-19T03:04:43.964Z,89.21
2023-05-19T03:07:13.577Z,89.28
2023-05-19T03:09:41.724Z,89.37
2023-05-19T03:12:09.501Z,89.43
2023-05-19T03:14:38.689Z,89.51
2023-05-19T03:17:10.408Z,89.56
2023-05-19T03:19:38.207Z,89.59
2023-05-19T03:22:06.606Z,89.62
2023-05-19T03:24:34.519Z,89.58
2023-05-19T03:27:02.789Z,89.64
2023-05-19T03:29:31.146Z,89.67
2023-05-19T03:31:59.991Z,89.75
2023-05-19T03:34:27.960Z,89.70
2023-05-19T03:36:55.808Z,89.71
2023-05-19T03:39:23.676Z,89.82
2023-05-19T03:41:51.580Z,89.82
2023-05-19T03:44:19.496Z,89.89
2023-05-19T03:46:47.277Z,89.95
2023-05-19T03:49:28.845Z,89.97
2023-05-19T03:52:14.105Z,89.90
2023-05-19T03:54:42.799Z,89.87
2023-05-19T03:57:13.849Z,89.95
2023-05-19T03:59:41.972Z,90.04
2023-05-19T04:02:09.780Z,90.03
2023-05-19T04:04:38.185Z,90.09
2023-05-19T04:07:07.206Z,90.16
2023-05-19T04:09:35.751Z,90.25
2023-05-19T04:12:03.719Z,90.25
2023-05-19T04:14:31.442Z,90.25
2023-05-19T04:16:59.936Z,90.20
2023-05-19T04:19:27.983Z,90.21
2023-05-19T04:21:57.099Z,90.19
2023-05-19T04:24:24.958Z,90.21
2023-05-19T04:26:53.316Z,90.28
2023-05-19T04:29:23.501Z,90.29
2023-05-19T04:31:52.860Z,90.22
2023-05-19T04:34:20.856Z,90.16
2023-05-19T04:36:51.003Z,90.09
2023-05-19T04:39:21.706Z,90.03
2023-05-19T04:41:49.555Z,90.03
2023-05-19T04:44:18.479Z,89.93
2023-05-19T04:46:46.394Z,89.84
2023-05-19T04:49:14.688Z,89.72
2023-05-19T04:51:42.567Z,89.62
2023-05-19T04:54:10.417Z,89.46
2023-05-19T04:56:38.127Z,89.32
2023-05-19T04:59:06.994Z,89.28
2023-05-19T05:01:35.604Z,89.29
2023-05-19T05:04:03.724Z,89.19
2023-05-19T05:06:31.858Z,89.04
2023-05-19T05:09:03.982Z,89.04
2023-05-19T05:11:32.100Z,89.02
2023-05-19T05:14:00.201Z,88.89
2023-05-19T05:16:28.346Z,88.75
2023-05-19T05:18:57.595Z,88.84
2023-05-19T05:21:26.244Z,88.94
2023-05-19T05:23:54.620Z,88.85
2023-05-19T05:26:23.350Z,88.80
2023-05-19T05:28:51.133Z,88.50
2023-05-19T05:31:19.026Z,88.41
2023-05-19T05:33:46.873Z,88.45
2023-05-19T05:36:14.818Z,88.36
2023-05-19T05:38:43.126Z,88.21
2023-05-19T05:41:11.609Z,88.08
2023-05-19T05:43:39.962Z,87.99
2023-05-19T05:46:08.171Z,87.94
2023-05-19T05:48:37.086Z,87.68
2023-05-19T05:51:06.131Z,87.58
2023-05-19T05:53:40.706Z,87.48
2023-05-19T05:56:10.839Z,87.31
2023-05-19T05:58:41.077Z,87.04
2023-05-19T06:01:11.872Z,87.11
2023-05-19T06:03:45.067Z,86.73
2023-05-19T06:06:13.388Z,86.66
2023-05-19T06:08:41.281Z,86.87
2023-05-19T06:11:09.465Z,86.86
2023-05-19T06:13:37.559Z,86.58
2023-05-19T06:16:06.210Z,86.43
2023-05-19T06:18:34.007Z,86.26
2023-05-19T06:21:01.890Z,86.29
2023-05-19T06:23:30.906Z,86.07
2023-05-19T06:25:58.803Z,85.86
2023-05-19T06:28:26.601Z,85.88
2023-05-19T06:30:54.418Z,85.69
2023-05-19T06:33:22.250Z,85.77
2023-05-19T06:35:50.138Z,85.59
2023-05-19T06:38:18.234Z,85.28
2023-05-19T06:40:46.056Z,85.03
2023-05-19T06:43:13.845Z,84.82
2023-05-19T06:45:41.585Z,84.58
2023-05-19T06:48:09.456Z,84.29
2023-05-19T06:50:37.519Z,84.56
2023-05-19T06:53:06.141Z,84.69
2023-05-19T06:55:37.132Z,84.92
2023-05-19T06:58:10.489Z,85.05
2023-05-19T07:00:38.338Z,84.95
2023-05-19T07:03:06.375Z,84.85
2023-05-19T07:05:34.204Z,85.01
2023-05-19T07:08:02.150Z,85.26
2023-05-19T07:10:32.226Z,85.39
2023-05-19T07:13:00.192Z,85.78
2023-05-19T07:15:28.021Z,86.03
2023-05-19T07:17:55.908Z,86.08
2023-05-19T07:20:23.721Z,86.01
2023-05-19T07:22:51.598Z,85.98
2023-05-19T07:25:22.188Z,86.05
2023-05-19T07:27:51.883Z,86.16
2023-05-19T07:30:19.596Z,86.15
2023-05-19T07:32:47.480Z,85.81
2023-05-19T07:35:15.595Z,85.74
2023-05-19T07:37:43.490Z,85.99
2023-05-19T07:40:11.646Z,85.99
2023-05-19T07:42:39.420Z,85.76
2023-05-19T07:45:07.942Z,85.80
2023-05-19T07:47:35.724Z,85.74
2023-05-19T07:50:04.531Z,85.21
2023-05-19T07:52:32.473Z,85.02
2023-05-19T07:55:00.499Z,84.89
2023-05-19T07:57:28.334Z,84.67
2023-05-19T07:59:56.654Z,84.64
2023-05-19T08:02:24.686Z,84.63
2023-05-19T08:04:53.229Z,84.95
2023-05-19T08:07:21.078Z,84.84
2023-05-19T08:09:49.317Z,84.54
2023-05-19T08:12:17.171Z,84.59
2023-05-19T08:14:44.916Z,84.49
2023-05-19T08:17:12.754Z,84.20
2023-05-19T08:19:40.490Z,83.72
2023-05-19T08:22:08.188Z,83.86
2023-05-19T08:24:36.110Z,84.15
2023-05-19T08:27:04.895Z,83.97
2023-05-19T08:29:32.848Z,83.51
2023-05-19T08:32:02.485Z,83.00
2023-05-19T08:34:30.284Z,82.72
2023-05-19T08:36:58.289Z,82.84
2023-05-19T08:39:28.994Z,83.12
2023-05-19T08:41:56.696Z,83.07
2023-05-19T08:44:24.575Z,82.86
2023-05-19T08:46:55.411Z,82.80
2023-05-19T08:49:32.493Z,82.83
2023-05-19T08:52:17.301Z,82.63
2023-05-19T08:55:00.857Z,82.59
2023-05-19T08:57:29.090Z,82.49
2023-05-19T08:59:58.344Z,82.19
2023-05-19T09:02:27.532Z,82.00
2023-05-19T09:04:56.663Z,82.10
2023-05-19T09:07:26.197Z,82.10
2023-05-19T09:09:54.106Z,82.27
2023-05-19T09:12:23.149Z,82.27
2023-05-19T09:14:55.029Z,82.14
2023-05-19T09:17:23.574Z,82.17
2023-05-19T09:19:51.574Z,82.04
2023-05-19T09:22:20.685Z,81.59
2023-05-19T09:24:49.293Z,81.38
2023-05-19T09:27:26.275Z,81.84
2023-05-19T09:29:54.019Z,81.70
2023-05-19T09:32:26.900Z,81.77
2023-05-19T09:34:55.275Z,81.83
2023-05-19T09:37:24.470Z,81.67
2023-05-19T09:39:53.504Z,81.04
2023-05-19T09:42:30.193Z,80.31
2023-05-19T09:45:02.640Z,80.16
2023-05-19T09:47:41.442Z,80.31
2023-05-19T09:50:11.901Z,80.22
2023-05-19T09:52:41.074Z,79.91
2023-05-19T09:55:13.595Z,80.17
2023-05-19T09:57:41.712Z,80.05
2023-05-19T10:00:19.926Z,79.99
2023-05-19T10:02:48.872Z,80.13
2023-05-19T10:05:20.397Z,80.27
2023-05-19T10:07:52.993Z,80.37
2023-05-19T10:10:22.870Z,80.38
2023-05-19T10:12:50.998Z,80.07
2023-05-19T10:15:29.901Z,79.75
2023-05-19T10:17:59.563Z,79.76
2023-05-19T10:20:28.799Z,79.10
2023-05-19T10:22:57.810Z,79.36
2023-05-19T10:25:25.799Z,79.58
2023-05-19T10:27:59.747Z,79.44
2023-05-19T10:30:34.577Z,79.28
2023-05-19T10:33:07.772Z,79.23
2023-05-19T10:36:09.204Z,79.06
2023-05-19T10:38:48.274Z,79.04
2023-05-19T10:41:34.071Z,78.26
2023-05-19T10:44:21.397Z,77.33
2023-05-19T10:46:49.181Z,77.13
2023-05-19T10:49:23.338Z,76.52
2023-05-19T10:51:56.698Z,74.46
2023-05-19T10:54:46.553Z,74.53
2023-05-19T10:57:17.487Z,74.70
2023-05-19T10:59:45.436Z,74.30
2023-05-19T11:02:41.534Z,74.14
2023-05-19T11:05:18.066Z,74.28
2023-05-19T11:07:57.354Z,73.34
2023-05-19T11:10:27.369Z,73.06
2023-05-19T11:15:27.954Z,74.30
2023-05-19T11:17:56.156Z,74.34
2023-05-19T11:20:28.904Z,73.12
2023-05-19T11:23:14.681Z,72.61
2023-05-19T11:25:51.282Z,72.98
2023-05-19T11:28:25.571Z,72.60
2023-05-19T11:30:55.262Z,73.23
2023-05-19T11:33:27.136Z,73.57
2023-05-19T11:35:58.490Z,73.12
2023-05-19T11:38:28.567Z,72.61
2023-05-19T11:40:56.795Z,72.36
2023-05-19T11:43:25.921Z,72.34
2023-05-19T11:45:55.122Z,72.88
2023-05-19T11:48:23.784Z,72.69
2023-05-19T11:50:52.457Z,71.80
2023-05-19T11:53:21.065Z,71.94
2023-05-19T11:55:49.618Z,72.43
2023-05-19T11:58:17.722Z,72.47
2023-05-19T12:00:47.678Z,71.92
2023-05-19T12:03:17.419Z,71.60
2023-05-19T12:05:48.401Z,70.91
2023-05-19T12:08:18.910Z,70.99
2023-05-19T12:10:53.870Z,70.82
2023-05-19T12:13:22.907Z,70.86
2023-05-19T12:15:53.029Z,71.00
2023-05-19T12:18:21.589Z,70.80
2023-05-19T12:20:49.750Z,70.69
2023-05-19T12:23:17.726Z,70.61
2023-05-19T12:25:45.752Z,69.99
2023-05-19T12:28:14.020Z,69.85
2023-05-19T12:30:51.808Z,70.35
2023-05-19T12:33:19.796Z,71.16
2023-05-19T12:35:50.009Z,71.33
2023-05-19T12:38:19.799Z,71.33
2023-05-19T12:40:47.573Z,71.05
2023-05-19T12:43:22.557Z,70.70
2023-05-19T12:45:50.291Z,70.59
2023-05-19T12:48:19.108Z,70.78
2023-05-19T12:50:47.096Z,70.53
2023-05-19T12:53:15.361Z,69.89
2023-05-19T12:55:45.124Z,70.27
2023-05-19T12:58:13.713Z,70.17
2023-05-19T13:00:43.865Z,70.11
2023-05-19T13:03:17.131Z,70.28
2023-05-19T13:05:47.405Z,70.42
2023-05-19T13:08:20.336Z,70.71
2023-05-19T13:10:51.533Z,70.49
2023-05-19T13:13:19.452Z,69.91
2023-05-19T13:15:50.604Z,70.33
2023-05-19T13:18:18.925Z,71.23
2023-05-19T13:20:49.312Z,70.94
2023-05-19T13:23:17.277Z,71.13
2023-05-19T13:25:45.473Z,71.36
2023-05-19T13:28:16.170Z,71.33
2023-05-19T13:30:45.034Z,71.08
2023-05-19T13:33:12.978Z,71.05
2023-05-19T13:35:40.896Z,71.13
2023-05-19T13:38:10.278Z,71.71
2023-05-19T13:40:40.230Z,71.64
2023-05-19T13:43:09.025Z,71.88
2023-05-19T13:45:37.124Z,72.10
2023-05-19T13:48:07.298Z,71.94
2023-05-19T13:50:35.740Z,71.71
2023-05-19T13:53:03.887Z,71.58
2023-05-19T13:55:32.735Z,71.59
2023-05-19T13:58:00.714Z,71.90
2023-05-19T14:00:28.563Z,72.12
2023-05-19T14:02:56.689Z,72.00
2023-05-19T14:05:24.524Z,71.60
2023-05-19T14:07:52.483Z,71.25
2023-05-19T14:10:21.894Z,71.17
2023-05-19T14:13:25.310Z,71.01
2023-05-19T14:15:38.479Z,71.29
2023-05-19T14:18:07.393Z,71.52
2023-05-19T14:20:36.199Z,71.52
2023-05-19T14:23:04.392Z,71.57
2023-05-19T14:25:32.409Z,71.34
2023-05-19T14:28:00.302Z,71.59
2023-05-19T14:30:28.159Z,72.22
2023-05-19T14:32:56.355Z,71.96
2023-05-19T14:35:25.354Z,71.74
2023-05-19T14:37:53.313Z,71.54
2023-05-19T14:40:21.349Z,72.08
2023-05-19T14:42:49.000Z,72.45
2023-05-19T14:45:16.888Z,72.82
2023-05-19T14:47:44.689Z,73.13
2023-05-19T14:50:12.494Z,73.25
2023-05-19T14:52:42.917Z,73.12
2023-05-19T14:55:11.453Z,73.13
2023-05-19T14:57:39.187Z,73.38
2023-05-19T15:00:09.254Z,73.78
2023-05-19T15:02:37.031Z,73.55
2023-05-19T15:05:05.268Z,73.43
2023-05-19T15:07:33.132Z,73.47
2023-05-19T15:10:02.091Z,73.30
2023-05-19T15:12:30.254Z,73.30
2023-05-19T15:14:58.112Z,73.50
2023-05-19T15:17:26.029Z,73.63
2023-05-19T15:19:53.923Z,73.44
2023-05-19T15:22:21.644Z,73.23
2023-05-19T15:24:49.846Z,73.54
2023-05-19T15:27:17.681Z,73.85
2023-05-19T15:29:46.338Z,73.84
2023-05-19T15:32:15.699Z,73.99
2023-05-19T15:34:44.964Z,74.07
2023-05-19T15:37:12.958Z,74.18
2023-05-19T15:39:40.746Z,74.28
2023-05-19T15:42:08.639Z,73.96
2023-05-19T15:44:36.676Z,74.02
2023-05-19T15:47:04.587Z,74.32
2023-05-19T15:49:32.278Z,74.60
2023-05-19T15:51:59.985Z,74.91
2023-05-19T15:54:27.672Z,75.20
2023-05-19T15:56:55.482Z,75.35
2023-05-19T15:59:23.362Z,75.22
2023-05-19T16:01:53.103Z,75.35
2023-05-19T16:04:21.356Z,75.35
2023-05-19T16:06:49.263Z,75.64
2023-05-19T16:09:16.974Z,75.98
2023-05-19T16:11:44.700Z,76.32
2023-05-19T16:14:12.427Z,76.47
2023-05-19T16:16:40.168Z,76.80
2023-05-19T16:19:08.197Z,76.96
2023-05-19T16:21:36.085Z,77.25
2023-05-19T16:24:04.231Z,77.58
2023-05-19T16:26:32.045Z,77.48
2023-05-19T16:29:00.294Z,77.45
2023-05-19T16:31:28.585Z,77.54
2023-05-19T16:33:56.821Z,77.42
2023-05-19T16:36:24.692Z,77.33
2023-05-19T16:38:53.977Z,77.65
2023-05-19T16:41:22.903Z,78.00
2023-05-19T16:43:50.965Z,78.28
2023-05-19T16:46:20.584Z,78.18
2023-05-19T16:48:49.143Z,78.28
2023-05-19T16:51:17.396Z,78.37
2023-05-19T16:53:45.689Z,78.46
2023-05-19T16:56:14.056Z,78.67
2023-05-19T16:58:42.179Z,78.87
2023-05-19T17:01:12.534Z,79.11
2023-05-19T17:03:40.789Z,79.24
2023-05-19T17:06:09.304Z,79.29
2023-05-19T17:08:37.258Z,79.44
2023-05-19T17:11:06.602Z,79.55
2023-05-19T17:13:36.515Z,79.57
2023-05-19T17:16:04.764Z,79.60
2023-05-19T17:18:32.498Z,79.60
2023-05-19T17:21:03.919Z,79.84
2023-05-19T17:23:32.619Z,80.06
2023-05-19T17:26:00.557Z,80.13
2023-05-19T17:28:29.318Z,80.28
2023-05-19T17:30:57.083Z,80.37
2023-05-19T17:33:24.828Z,80.51
2023-05-19T17:35:52.893Z,80.62
2023-05-19T17:38:20.779Z,80.82
2023-05-19T17:40:48.540Z,80.98
2023-05-19T17:43:16.326Z,81.12
2023-05-19T17:45:44.185Z,81.27
2023-05-19T17:48:12.212Z,81.42
2023-05-19T17:50:40.006Z,81.53
2023-05-19T17:53:07.967Z,81.62
2023-05-19T17:55:35.957Z,81.72
2023-05-19T17:58:03.951Z,81.84
2023-05-19T18:00:33.134Z,81.93
2023-05-19T18:03:01.930Z,82.00
2023-05-19T18:05:30.010Z,82.04
2023-05-19T18:07:59.357Z,82.04
2023-05-19T18:10:27.974Z,82.16
2023-05-19T18:12:55.737Z,82.25
2023-05-19T18:15:24.055Z,82.35
2023-05-19T18:17:51.880Z,82.47
2023-05-19T18:20:19.821Z,82.55
2023-05-19T18:22:47.598Z,82.62
2023-05-19T18:25:17.030Z,82.69
2023-05-19T18:27:49.444Z,82.74
2023-05-19T18:30:17.556Z,82.89
2023-05-19T18:32:45.459Z,82.94
2023-05-19T18:35:13.717Z,82.93
2023-05-19T18:37:41.615Z,83.04
2023-05-19T18:40:09.952Z,83.20
2023-05-19T18:42:38.150Z,83.38
2023-05-19T18:45:06.824Z,83.55
2023-05-19T18:47:35.009Z,83.62
2023-05-19T18:50:03.551Z,83.68
2023-05-19T18:52:32.503Z,83.73
2023-05-19T18:55:04.354Z,83.78
2023-05-19T18:57:32.537Z,83.83
2023-05-19T19:00:01.410Z,83.88
2023-05-19T19:02:29.609Z,84.05
2023-05-19T19:04:59.988Z,84.22
2023-05-19T19:07:30.834Z,84.41
2023-05-19T19:10:02.445Z,84.50
2023-05-19T19:12:41.419Z,84.49
2023-05-19T19:15:10.105Z,84.41
2023-05-19T19:17:42.816Z,84.35
2023-05-19T19:23:34.488Z,84.32
2023-05-19T19:26:02.354Z,84.14
2023-05-19T19:28:31.054Z,84.03
2023-05-19T19:30:58.829Z,83.90
2023-05-19T19:33:27.834Z,83.78
2023-05-19T19:35:55.585Z,83.72
2023-05-19T19:38:23.381Z,83.69
2023-05-19T19:41:58.946Z,83.56
2023-05-19T19:49:14.555Z,83.75
2023-05-19T20:04:29.905Z,84.05
2023-05-19T23:38:55.948Z,85.20
